createdAt,value
2017-08-11T19:06:15.881Z,100709.98
2017-08-11T19:08:43.544Z,100713.66
2017-08-11T19:11:10.721Z,100711.34
2017-08-11T19:13:38.001Z,100714.32
2017-08-11T19:16:05.520Z,100712.28
2017-08-11T19:18:32.713Z,100710.61
2017-08-11T19:21:00.104Z,100713.28
2017-08-11T19:23:27.520Z,100709.27
2017-08-11T19:25:54.977Z,100713.34
2017-08-11T19:28:22.439Z,100719.17
2017-08-11T19:30:50.054Z,100725.16
2017-08-11T19:33:17.349Z,100711.11
2017-08-11T19:35:44.808Z,100718.52
2017-08-11T19:38:11.998Z,100716.99
2017-08-11T19:40:39.184Z,100716.27
2017-08-11T19:43:06.879Z,100715.60
2017-08-11T19:45:34.533Z,100713.86
2017-08-11T19:48:01.789Z,100703.35
2017-08-11T19:50:29.245Z,100706.57
2017-08-11T19:52:56.422Z,100702.71
2017-08-11T19:55:23.598Z,100705.41
2017-08-11T19:57:51.200Z,100707.30
2017-08-11T20:00:18.467Z,100701.03
2017-08-11T20:02:46.232Z,100706.02
2017-08-11T20:05:13.403Z,100701.55
2017-08-11T20:07:40.834Z,100705.63
2017-08-11T20:10:08.020Z,100707.81
2017-08-11T20:12:35.754Z,100718.56
2017-08-11T20:15:03.210Z,100721.66
2017-08-11T20:17:30.968Z,100716.38
2017-08-11T20:19:58.632Z,100722.14
2017-08-11T20:22:26.071Z,100715.46
2017-08-11T20:24:53.460Z,100723.05
2017-08-11T20:27:21.112Z,100730.58
2017-08-11T20:29:48.555Z,100730.22
2017-08-11T20:32:15.733Z,100728.42
2017-08-11T20:34:42.928Z,100726.64
2017-08-11T20:37:10.326Z,100728.42
2017-08-11T20:39:37.921Z,100730.67
2017-08-11T20:42:05.609Z,100729.09
2017-08-11T20:44:33.007Z,100726.31
2017-08-11T20:47:00.195Z,100721.64
2017-08-11T20:49:27.388Z,100725.26
2017-08-11T20:51:54.567Z,100728.11
2017-08-11T20:54:22.103Z,100727.05
2017-08-11T20:56:49.292Z,100729.80
